Time;durP1;ratioP1;P1;durP2;ratioP2;P2;SDS_P1;SDS_P2;PMS_P1;PMS_P2;Temp;Humidity;BMP_temperature;BMP_pressure;BME280_temperature;BME280_humidity;BME280_pressure;Samples;Min_cycle;Max_cycle;Signal;HPM_P1;HPM_P2
2023/09/15 00:00:29;;;;;;;6.93;2.90;;;16.30;99.90;;;;;;5056820;28;20431;-68
2023/09/15 00:02:58;;;;;;;3.67;2.73;;;16.30;99.90;;;;;;5055960;28;20566;-68
2023/09/15 00:05:28;;;;;;;5.13;2.73;;;16.30;99.90;;;;;;5058065;28;20885;-69
2023/09/15 00:07:57;;;;;;;4.60;2.97;;;16.20;99.90;;;;;;5057349;28;20904;-68
2023/09/15 00:10:28;;;;;;;5.20;2.80;;;16.20;99.90;;;;;;5058694;28;20438;-68
2023/09/15 00:12:58;;;;;;;4.00;3.50;;;16.20;99.90;;;;;;5056694;28;20436;-67
2023/09/15 00:15:25;;;;;;;6.77;4.37;;;16.10;99.90;;;;;;5037704;28;20451;-67
2023/09/15 00:17:55;;;;;;;3.90;2.57;;;16.10;99.90;;;;;;5055887;28;20471;-68
2023/09/15 00:20:24;;;;;;;5.93;2.73;;;16.00;99.90;;;;;;5056581;28;20434;-68
2023/09/15 00:22:53;;;;;;;5.57;3.70;;;16.00;99.90;;;;;;5057429;28;20423;-67
2023/09/15 00:25:21;;;;;;;7.60;3.33;;;15.90;99.90;;;;;;5056055;28;20478;-69
2023/09/15 00:27:50;;;;;;;8.73;3.63;;;15.90;99.90;;;;;;5055588;28;20516;-68
2023/09/15 00:30:18;;;;;;;5.73;3.03;;;15.90;99.90;;;;;;5054888;28;20478;-67
2023/09/15 00:32:48;;;;;;;8.30;3.87;;;15.80;99.90;;;;;;5056170;28;20478;-67
2023/09/15 00:35:19;;;;;;;8.03;3.40;;;15.80;99.90;;;;;;5075438;28;20427;-67
2023/09/15 00:38:16;;;;;;;9.10;3.20;;;15.80;99.90;;;;;;5057060;28;20466;-68
2023/09/15 00:40:43;;;;;;;11.23;2.83;;;15.80;99.90;;;;;;5067498;28;20463;-68
2023/09/15 00:43:10;;;;;;;7.83;2.90;;;15.80;99.90;;;;;;5055379;28;20420;-68
2023/09/15 00:45:37;;;;;;;4.33;2.30;;;15.80;99.90;;;;;;5054764;28;20861;-68
2023/09/15 00:48:06;;;;;;;3.97;2.67;;;15.70;99.90;;;;;;5043299;28;20512;-68
2023/09/15 00:50:37;;;;;;;6.47;2.90;;;15.70;99.90;;;;;;5035037;28;20471;-67
2023/09/15 00:53:10;;;;;;;8.83;3.33;;;15.70;99.90;;;;;;5034857;28;20906;-68
2023/09/15 00:55:41;;;;;;;5.23;3.10;;;15.60;99.90;;;;;;5016658;28;20494;-68
2023/09/15 00:58:11;;;;;;;4.03;3.17;;;15.60;99.90;;;;;;5035528;28;20522;-67
2023/09/15 01:00:47;;;;;;;4.17;3.07;;;15.60;99.90;;;;;;5037123;28;20468;-68
2023/09/15 01:03:18;;;;;;;5.20;2.47;;;15.50;99.90;;;;;;5054741;28;20511;-68
2023/09/15 01:06:00;;;;;;;9.27;3.43;;;15.50;99.90;;;;;;5054412;28;20428;-67
2023/09/15 01:08:27;;;;;;;4.03;2.70;;;15.50;99.90;;;;;;5055084;28;20468;-67
2023/09/15 01:11:01;;;;;;;3.80;2.20;;;15.40;99.90;;;;;;5054061;28;20471;-67
2023/09/15 01:13:28;;;;;;;3.60;2.23;;;15.40;99.90;;;;;;5054573;28;20458;-68
2023/09/15 01:16:02;;;;;;;3.50;2.50;;;15.40;99.90;;;;;;5054292;28;20803;-68
2023/09/15 01:18:56;;;;;;;6.47;2.93;;;15.40;99.90;;;;;;5054346;28;20529;-68
2023/09/15 01:22:04;;;;;;;4.03;2.30;;;15.40;99.90;;;;;;5054111;28;20435;-70
2023/09/15 01:25:04;;;;;;;3.67;2.50;;;15.30;99.90;;;;;;5054136;28;20953;-67
2023/09/15 01:27:53;;;;;;;3.50;2.60;;;15.30;99.90;;;;;;5053556;28;20463;-67
2023/09/15 01:30:24;;;;;;;6.97;2.60;;;15.30;99.90;;;;;;5054113;28;20463;-67
2023/09/15 01:32:53;;;;;;;5.90;3.20;;;15.30;99.90;;;;;;5053906;28;20459;-67
2023/09/15 01:35:21;;;;;;;4.13;2.80;;;15.30;99.90;;;;;;5054176;28;20908;-68
2023/09/15 01:37:50;;;;;;;4.70;3.40;;;15.20;99.90;;;;;;5054017;28;20463;-67
2023/09/15 01:40:27;;;;;;;5.53;3.30;;;15.20;99.90;;;;;;5054475;28;20472;-68
2023/09/15 01:42:55;;;;;;;2.93;2.40;;;15.20;99.90;;;;;;5054247;28;20481;-68
2023/09/15 01:45:23;;;;;;;3.70;2.40;;;15.20;99.90;;;;;;5053926;28;20424;-68
2023/09/15 01:47:53;;;;;;;5.33;2.80;;;15.20;99.90;;;;;;5053967;28;20491;-68
2023/09/15 01:50:24;;;;;;;5.70;2.40;;;15.20;99.90;;;;;;5053857;28;21030;-67
2023/09/15 01:52:51;;;;;;;3.47;2.70;;;15.20;99.90;;;;;;5036942;28;20427;-67
2023/09/15 01:55:20;;;;;;;4.20;2.73;;;15.10;99.90;;;;;;5054167;28;20980;-68
2023/09/15 01:57:48;;;;;;;7.20;3.70;;;15.10;99.90;;;;;;5053822;28;21030;-67
2023/09/15 02:00:59;;;;;;;7.03;3.50;;;15.10;99.90;;;;;;5054081;28;20458;-70
2023/09/15 02:03:55;;;;;;;4.00;2.50;;;15.10;99.90;;;;;;5054793;28;20815;-69
2023/09/15 02:06:22;;;;;;;3.67;2.70;;;15.10;99.90;;;;;;5034964;28;20518;-69
2023/09/15 02:08:50;;;;;;;3.33;2.50;;;15.00;99.90;;;;;;5036808;28;20460;-68
2023/09/15 02:11:40;;;;;;;4.83;3.10;;;15.00;99.90;;;;;;5034400;28;20519;-68
2023/09/15 02:14:12;;;;;;;3.63;2.80;;;15.00;99.90;;;;;;5034256;28;20472;-68
2023/09/15 02:16:42;;;;;;;3.43;2.90;;;15.00;99.90;;;;;;5033441;28;20514;-69
2023/09/15 02:19:10;;;;;;;7.23;3.67;;;14.90;99.90;;;;;;5033312;28;20463;-68
2023/09/15 02:21:41;;;;;;;3.73;2.70;;;14.90;99.90;;;;;;5044168;28;20812;-67
2023/09/15 02:24:09;;;;;;;4.67;2.70;;;14.90;99.90;;;;;;5053101;28;20459;-68
2023/09/15 02:26:37;;;;;;;3.73;2.90;;;14.90;99.90;;;;;;5053262;28;20483;-69
2023/09/15 02:29:04;;;;;;;9.23;3.00;;;14.90;99.90;;;;;;5053421;28;20464;-69
2023/09/15 02:32:10;;;;;;;4.30;3.80;;;14.90;99.90;;;;;;5053229;28;20499;-68
2023/09/15 02:34:38;;;;;;;3.70;2.53;;;14.90;99.90;;;;;;5032682;28;20479;-69
2023/09/15 02:37:36;;;;;;;4.10;3.00;;;14.90;99.90;;;;;;5032910;28;20559;-68
2023/09/15 02:43:15;;;;;;;6.23;3.10;;;15.00;99.90;;;;;;5034396;28;20385;-68
2023/09/15 02:45:51;;;;;;;5.30;2.77;;;14.90;99.90;;;;;;5038089;28;20439;-68
2023/09/15 02:48:21;;;;;;;3.83;2.70;;;14.90;99.90;;;;;;5053271;28;20780;-68
2023/09/15 02:50:50;;;;;;;5.00;3.10;;;14.80;99.90;;;;;;5053198;28;20805;-68
2023/09/15 02:53:18;;;;;;;4.00;2.53;;;14.80;99.90;;;;;;5052956;28;20497;-68
2023/09/15 02:56:04;;;;;;;4.80;2.93;;;14.80;99.90;;;;;;5052896;28;20427;-68
2023/09/15 02:58:33;;;;;;;4.37;2.90;;;14.70;99.90;;;;;;5052794;28;20534;-68
2023/09/15 03:01:29;;;;;;;4.47;2.83;;;14.70;99.90;;;;;;5053091;28;20427;-67
2023/09/15 03:04:05;;;;;;;5.90;3.10;;;14.70;99.90;;;;;;5053116;28;20895;-68
2023/09/15 03:06:35;;;;;;;6.60;3.30;;;14.60;99.90;;;;;;5046733;28;21101;-67
2023/09/15 03:09:06;;;;;;;4.83;2.60;;;14.70;99.90;;;;;;5032874;28;20467;-67
2023/09/15 03:11:36;;;;;;;4.00;3.10;;;14.60;99.90;;;;;;5033293;28;20783;-67
2023/09/15 03:14:28;;;;;;;4.73;2.83;;;14.60;99.90;;;;;;5023562;28;20540;-67
2023/09/15 03:16:55;;;;;;;6.93;3.20;;;14.60;99.90;;;;;;5052861;28;20463;-67
2023/09/15 03:19:22;;;;;;;11.50;3.57;;;14.50;99.90;;;;;;5052840;28;20442;-69
2023/09/15 03:22:02;;;;;;;5.50;2.97;;;14.50;99.90;;;;;;5037072;28;20531;-67
2023/09/15 03:24:29;;;;;;;4.60;3.20;;;14.50;99.90;;;;;;5033778;28;20420;-68
2023/09/15 03:27:01;;;;;;;4.77;2.50;;;14.40;99.90;;;;;;5041594;28;20525;-67
2023/09/15 03:29:28;;;;;;;2.73;2.40;;;14.40;99.90;;;;;;5035946;28;20550;-67
2023/09/15 03:31:55;;;;;;;5.40;3.40;;;14.40;99.90;;;;;;5058953;28;20490;-68
2023/09/15 03:34:24;;;;;;;5.30;3.00;;;14.40;99.90;;;;;;5072947;28;20427;-67
2023/09/15 03:36:53;;;;;;;4.10;2.67;;;14.50;99.90;;;;;;5072628;28;20464;-67
2023/09/15 03:39:24;;;;;;;10.37;3.50;;;14.50;99.90;;;;;;5073017;28;20423;-67
2023/09/15 03:42:30;;;;;;;3.97;2.63;;;14.40;99.90;;;;;;5072500;28;20466;-68
2023/09/15 03:44:57;;;;;;;7.00;3.67;;;14.40;99.90;;;;;;5011407;28;20455;-67
2023/09/15 03:47:24;;;;;;;5.43;3.80;;;14.40;99.90;;;;;;4995147;28;20549;-67
2023/09/15 03:50:09;;;;;;;5.40;2.87;;;14.40;99.90;;;;;;4998295;28;20478;-68
2023/09/15 03:52:36;;;;;;;8.83;3.57;;;14.30;99.90;;;;;;5004474;28;20904;-68
2023/09/15 03:55:05;;;;;;;5.67;3.63;;;14.30;99.90;;;;;;5003233;28;20426;-67
2023/09/15 03:57:39;;;;;;;9.70;3.10;;;14.30;99.90;;;;;;5004115;28;20931;-68
2023/09/15 04:00:30;;;;;;;8.17;3.43;;;14.30;99.90;;;;;;5010851;28;20480;-68
2023/09/15 04:02:57;;;;;;;6.43;3.20;;;14.30;99.90;;;;;;5023192;28;20445;-68
2023/09/15 04:05:24;;;;;;;4.10;3.70;;;14.30;99.90;;;;;;5016411;28;20465;-66
2023/09/15 04:08:00;;;;;;;4.13;3.43;;;14.30;99.90;;;;;;5003483;28;20553;-68
2023/09/15 04:10:34;;;;;;;10.27;3.67;;;14.20;99.90;;;;;;5003159;28;20494;-68
2023/09/15 04:13:02;;;;;;;6.80;4.23;;;14.30;99.90;;;;;;5003822;28;20414;-68
2023/09/15 04:15:30;;;;;;;4.03;3.23;;;14.30;99.90;;;;;;5004345;28;20454;-68
2023/09/15 04:17:57;;;;;;;4.90;3.43;;;14.30;99.90;;;;;;5003885;28;20501;-68
2023/09/15 04:20:41;;;;;;;11.70;3.10;;;14.30;99.90;;;;;;5004133;28;20430;-68
2023/09/15 04:23:08;;;;;;;4.67;3.63;;;14.30;99.90;;;;;;5060038;28;20478;-68
2023/09/15 04:25:36;;;;;;;7.60;3.77;;;14.30;99.90;;;;;;5064491;28;20439;-69
2023/09/15 04:28:19;;;;;;;5.43;3.33;;;14.30;99.90;;;;;;5065006;28;20463;-68
2023/09/15 04:30:47;;;;;;;11.43;3.87;;;14.30;99.90;;;;;;5061535;28;20463;-67
2023/09/15 04:33:14;;;;;;;5.80;3.47;;;14.30;99.90;;;;;;5064878;28;20845;-67
2023/09/15 04:35:49;;;;;;;4.87;3.73;;;14.30;99.90;;;;;;5060940;28;20916;-69
2023/09/15 04:38:19;;;;;;;8.43;3.37;;;14.30;99.90;;;;;;5038310;28;20459;-69
2023/09/15 04:40:48;;;;;;;5.47;4.30;;;14.20;99.90;;;;;;5037912;28;20919;-68
2023/09/15 04:43:16;;;;;;;4.37;3.97;;;14.30;99.90;;;;;;5018243;28;21021;-67
2023/09/15 04:46:06;;;;;;;5.87;3.47;;;14.30;99.90;;;;;;5035947;28;20499;-67
2023/09/15 04:48:33;;;;;;;5.67;3.77;;;14.30;99.90;;;;;;5035632;28;20424;-67
2023/09/15 04:51:01;;;;;;;5.97;3.37;;;14.20;99.90;;;;;;5017519;28;20571;-67
2023/09/15 04:53:32;;;;;;;4.60;4.10;;;14.30;99.90;;;;;;5035879;28;20478;-68
2023/09/15 04:56:10;;;;;;;5.43;3.80;;;14.30;99.90;;;;;;5035756;28;20464;-67
2023/09/15 04:58:49;;;;;;;6.60;3.70;;;14.20;99.90;;;;;;5034541;28;20448;-68
2023/09/15 05:01:36;;;;;;;7.40;3.30;;;14.20;99.90;;;;;;5034872;28;20468;-67
2023/09/15 05:04:03;;;;;;;5.43;4.00;;;14.20;99.90;;;;;;5035084;28;20461;-67
2023/09/15 05:06:30;;;;;;;5.30;3.60;;;14.20;99.90;;;;;;5035433;28;20547;-68
2023/09/15 05:08:58;;;;;;;4.57;3.23;;;14.20;99.90;;;;;;5035232;28;20428;-68
2023/09/15 05:11:39;;;;;;;13.23;4.37;;;14.20;99.90;;;;;;5034968;28;20500;-69
2023/09/15 05:14:08;;;;;;;4.90;3.73;;;14.30;99.90;;;;;;5035055;28;20890;-68
2023/09/15 05:16:54;;;;;;;4.93;3.20;;;14.30;99.90;;;;;;5034587;28;20495;-68
2023/09/15 05:19:21;;;;;;;4.40;3.67;;;14.30;99.90;;;;;;5035323;28;20558;-68
2023/09/15 05:21:48;;;;;;;6.73;3.90;;;14.30;99.90;;;;;;5035169;28;20444;-67
2023/09/15 05:24:31;;;;;;;5.10;3.50;;;14.30;99.90;;;;;;5067570;28;20484;-67
2023/09/15 05:26:59;;;;;;;7.63;3.80;;;14.20;99.90;;;;;;5046193;28;20467;-68
2023/09/15 05:29:29;;;;;;;6.27;4.07;;;14.20;99.90;;;;;;5054571;28;20443;-66
2023/09/15 05:31:56;;;;;;;6.10;3.53;;;14.30;99.90;;;;;;5054600;28;20908;-67
2023/09/15 05:34:29;;;;;;;4.80;3.60;;;14.30;99.90;;;;;;5054425;28;20558;-68
2023/09/15 05:36:56;;;;;;;6.83;3.40;;;14.20;99.90;;;;;;5054404;28;20490;-67
2023/09/15 05:39:26;;;;;;;4.33;3.53;;;14.30;99.90;;;;;;5054390;28;20501;-68
2023/09/15 05:41:53;;;;;;;8.30;4.40;;;14.30;99.90;;;;;;5054399;28;20505;-68
2023/09/15 05:44:21;;;;;;;7.87;4.73;;;14.40;99.90;;;;;;5053699;28;20443;-68
2023/09/15 05:46:52;;;;;;;5.57;4.10;;;14.40;99.90;;;;;;5054103;28;20999;-69
2023/09/15 05:49:19;;;;;;;4.77;3.33;;;14.40;99.90;;;;;;5040573;28;20452;-68
2023/09/15 05:51:47;;;;;;;6.43;3.87;;;14.50;99.90;;;;;;5034388;28;20492;-69
2023/09/15 05:54:14;;;;;;;10.53;4.87;;;14.50;99.90;;;;;;5046298;28;20538;-68
2023/09/15 05:57:05;;;;;;;5.20;3.73;;;14.50;99.90;;;;;;5054676;28;20971;-67
2023/09/15 05:59:51;;;;;;;6.13;4.50;;;14.50;99.90;;;;;;5054383;28;20463;-69
2023/09/15 06:02:20;;;;;;;5.77;4.03;;;14.50;99.90;;;;;;5054179;28;20934;-70
2023/09/15 06:04:50;;;;;;;6.37;4.23;;;14.50;99.90;;;;;;5053712;28;20908;-68
2023/09/15 06:07:18;;;;;;;9.53;4.67;;;14.60;99.90;;;;;;5054086;28;20473;-69
2023/09/15 06:10:03;;;;;;;8.77;4.77;;;14.60;99.90;;;;;;5053216;28;20428;-68
2023/09/15 06:12:30;;;;;;;5.63;4.40;;;14.70;99.90;;;;;;5054092;28;20439;-68
2023/09/15 06:15:00;;;;;;;6.30;4.10;;;14.70;99.90;;;;;;5038510;28;20531;-68
2023/09/15 06:17:40;;;;;;;4.40;3.40;;;14.70;99.90;;;;;;5034555;28;20456;-68
2023/09/15 06:20:33;;;;;;;6.60;3.43;;;14.80;99.90;;;;;;5047904;28;20496;-67
2023/09/15 06:23:02;;;;;;;5.30;3.70;;;14.80;99.90;;;;;;5053447;28;20431;-69
2023/09/15 06:25:31;;;;;;;6.30;4.47;;;14.90;99.90;;;;;;5053718;28;20455;-67
2023/09/15 06:28:21;;;;;;;5.73;3.67;;;15.00;99.90;;;;;;5053349;28;20463;-68
2023/09/15 06:30:56;;;;;;;6.23;4.63;;;15.00;99.90;;;;;;5053501;28;20523;-69
2023/09/15 06:33:24;;;;;;;5.27;4.20;;;15.10;99.90;;;;;;5053312;28;20450;-65
2023/09/15 06:35:51;;;;;;;6.73;3.70;;;15.10;99.90;;;;;;5039495;28;20483;-69
2023/09/15 06:38:25;;;;;;;8.03;3.63;;;15.20;99.90;;;;;;5034155;28;20432;-69
2023/09/15 06:41:07;;;;;;;5.47;4.00;;;15.30;99.90;;;;;;5044395;28;20501;-68
2023/09/15 06:43:36;;;;;;;7.33;4.03;;;15.30;99.90;;;;;;5053196;28;20777;-68
2023/09/15 06:46:18;;;;;;;4.83;3.83;;;15.40;99.90;;;;;;5042925;28;20448;-68
2023/09/15 06:48:46;;;;;;;5.20;3.50;;;15.40;99.90;;;;;;5051783;28;20443;-69
2023/09/15 06:51:15;;;;;;;6.77;3.80;;;15.50;99.90;;;;;;5053273;28;20533;-67
2023/09/15 06:53:55;;;;;;;5.53;3.37;;;15.60;99.90;;;;;;5034866;28;20817;-68
2023/09/15 06:56:22;;;;;;;4.70;3.67;;;15.60;99.90;;;;;;5046107;28;21012;-68
2023/09/15 06:58:50;;;;;;;6.60;3.70;;;15.70;99.90;;;;;;5033350;28;20480;-69
2023/09/15 07:01:25;;;;;;;6.07;4.10;;;15.80;99.90;;;;;;5015859;28;20471;-69
2023/09/15 07:04:03;;;;;;;6.70;4.03;;;15.80;99.90;;;;;;5040439;28;20490;-72
2023/09/15 07:06:30;;;;;;;6.80;3.13;;;15.90;99.90;;;;;;5053725;28;20455;-68
2023/09/15 07:08:58;;;;;;;4.90;3.23;;;16.00;99.90;;;;;;5052849;28;20523;-68
2023/09/15 07:11:31;;;;;;;7.60;4.10;;;16.00;99.90;;;;;;5052938;28;20512;-68
2023/09/15 07:13:58;;;;;;;7.40;4.10;;;16.10;99.90;;;;;;5052740;28;20466;-68
2023/09/15 07:16:27;;;;;;;7.00;4.57;;;16.10;99.90;;;;;;5052335;28;20475;-68
2023/09/15 07:18:56;;;;;;;5.17;4.13;;;16.20;99.90;;;;;;5052968;28;20840;-69
2023/09/15 07:21:25;;;;;;;8.87;4.50;;;16.30;99.90;;;;;;5055434;28;20435;-69
2023/09/15 07:23:54;;;;;;;6.47;3.60;;;16.30;99.90;;;;;;5042609;28;20450;-69
2023/09/15 07:26:24;;;;;;;6.50;4.07;;;16.40;99.90;;;;;;5056815;28;20951;-68
2023/09/15 07:28:51;;;;;;;9.67;4.03;;;16.50;99.90;;;;;;5056608;28;20460;-68
2023/09/15 07:31:19;;;;;;;6.70;3.83;;;16.60;99.90;;;;;;5056141;28;20870;-67
2023/09/15 07:33:48;;;;;;;6.90;4.23;;;16.60;99.90;;;;;;5055811;28;20450;-68
2023/09/15 07:36:17;;;;;;;9.13;5.87;;;16.80;99.90;;;;;;5049139;28;20475;-67
2023/09/15 07:38:44;;;;;;;5.40;3.83;;;16.80;99.90;;;;;;5036281;28;20498;-67
2023/09/15 07:41:12;;;;;;;7.83;3.73;;;17.00;99.90;;;;;;5036760;28;20488;-68
2023/09/15 07:43:40;;;;;;;5.80;3.90;;;17.00;99.90;;;;;;5057233;28;20477;-67
2023/09/15 07:46:07;;;;;;;4.50;3.37;;;17.20;99.90;;;;;;5077015;28;20458;-68
2023/09/15 07:48:34;;;;;;;5.20;3.70;;;17.20;99.90;;;;;;5057142;28;20969;-69
2023/09/15 07:51:15;;;;;;;7.63;4.90;;;17.30;99.90;;;;;;5039826;28;20557;-67
2023/09/15 07:53:43;;;;;;;7.03;4.10;;;17.40;99.90;;;;;;5058680;28;20481;-67
2023/09/15 07:56:10;;;;;;;10.37;4.60;;;17.50;99.90;;;;;;5058383;28;21071;-67
2023/09/15 07:58:37;;;;;;;6.90;3.67;;;17.50;99.90;;;;;;5059938;28;20466;-68
2023/09/15 08:01:05;;;;;;;8.73;4.60;;;17.60;99.90;;;;;;5057288;28;20428;-69
2023/09/15 08:03:33;;;;;;;5.57;4.13;;;17.60;99.90;;;;;;5038508;28;20475;-67
2023/09/15 08:06:00;;;;;;;8.20;3.60;;;17.70;99.90;;;;;;5055943;28;20523;-69
2023/09/15 08:08:29;;;;;;;4.63;3.40;;;17.80;99.90;;;;;;5055566;28;20850;-69
2023/09/15 08:10:56;;;;;;;6.00;4.17;;;17.90;99.90;;;;;;5055717;28;20509;-68
2023/09/15 08:13:25;;;;;;;8.07;3.97;;;18.10;99.90;;;;;;5055288;28;20439;-68
2023/09/15 08:15:53;;;;;;;4.77;3.80;;;18.90;99.90;;;;;;5054614;28;21022;-68
2023/09/15 08:18:20;;;;;;;6.57;3.00;;;20.70;99.90;;;;;;5054498;28;20424;-66
2023/09/15 08:20:47;;;;;;;6.07;3.77;;;22.80;99.90;;;;;;5054846;28;20497;-68
2023/09/15 08:23:15;;;;;;;4.07;3.20;;;25.00;99.90;;;;;;5053951;28;20456;-67
2023/09/15 08:25:44;;;;;;;4.80;3.40;;;27.00;99.90;;;;;;5055648;28;20443;-66
2023/09/15 08:28:11;;;;;;;7.30;3.20;;;28.90;99.00;;;;;;5053730;28;20483;-67
2023/09/15 08:30:39;;;;;;;3.40;3.10;;;29.90;92.30;;;;;;5055067;28;20865;-66
2023/09/15 08:33:06;;;;;;;5.83;3.90;;;30.90;84.30;;;;;;5053822;28;20477;-67
2023/09/15 08:35:33;;;;;;;5.83;3.30;;;31.70;76.40;;;;;;5054135;28;20444;-68
2023/09/15 08:38:00;;;;;;;4.40;3.00;;;32.40;72.70;;;;;;5055060;28;20447;-68
2023/09/15 08:40:38;;;;;;;6.33;3.50;;;33.00;67.80;;;;;;5054920;28;20431;-67
2023/09/15 08:43:07;;;;;;;5.40;3.83;;;33.40;62.80;;;;;;5052930;28;20513;-67
2023/09/15 08:45:35;;;;;;;4.20;3.57;;;33.40;61.30;;;;;;5054890;28;20423;-68
2023/09/15 08:48:06;;;;;;;6.63;5.93;;;33.60;59.30;;;;;;5053342;28;20463;-67
2023/09/15 08:50:35;;;;;;;5.13;4.37;;;33.60;58.30;;;;;;5053568;28;21062;-68
2023/09/15 08:53:03;;;;;;;4.87;3.70;;;33.60;57.70;;;;;;5054698;28;20574;-67
2023/09/15 08:55:30;;;;;;;6.40;3.47;;;33.50;57.50;;;;;;5053049;28;20494;-68
2023/09/15 08:57:58;;;;;;;5.70;3.27;;;33.30;58.20;;;;;;5054500;28;20520;-67
2023/09/15 09:00:30;;;;;;;3.70;3.10;;;33.40;56.70;;;;;;5044603;28;21007;-67
2023/09/15 09:02:59;;;;;;;5.93;3.97;;;33.00;57.00;;;;;;5039446;28;20447;-66
2023/09/15 09:05:28;;;;;;;4.97;3.93;;;32.80;57.70;;;;;;5053835;28;20452;-68
2023/09/15 09:07:56;;;;;;;4.30;3.40;;;32.60;58.20;;;;;;5054585;28;20972;-67
2023/09/15 09:10:24;;;;;;;6.13;4.30;;;32.50;57.80;;;;;;5054082;28;20518;-66
2023/09/15 09:12:51;;;;;;;3.80;2.97;;;32.40;57.70;;;;;;5054223;28;20455;-67
2023/09/15 09:15:21;;;;;;;6.23;3.23;;;32.30;57.20;;;;;;5054284;28;20434;-66
2023/09/15 09:17:52;;;;;;;3.63;3.20;;;32.00;57.80;;;;;;5054429;28;21001;-67
2023/09/15 09:20:26;;;;;;;8.00;3.87;;;31.90;58.60;;;;;;5054580;28;20431;-66
2023/09/15 09:22:55;;;;;;;3.73;2.87;;;31.60;58.00;;;;;;5053738;28;20419;-68
2023/09/15 09:25:29;;;;;;;3.07;2.70;;;31.60;58.40;;;;;;5052873;28;20462;-67
2023/09/15 09:27:57;;;;;;;4.90;3.03;;;31.70;57.60;;;;;;5054184;28;20488;-66
2023/09/15 09:30:26;;;;;;;5.60;3.20;;;31.60;56.80;;;;;;5053899;28;20913;-67
2023/09/15 09:32:54;;;;;;;2.40;2.17;;;31.20;58.00;;;;;;5054455;28;20545;-68
2023/09/15 09:35:21;;;;;;;4.00;2.33;;;31.00;57.70;;;;;;5053754;28;20998;-67
2023/09/15 09:37:49;;;;;;;2.67;2.47;;;31.20;57.60;;;;;;5055342;28;20460;-67
2023/09/15 09:40:17;;;;;;;4.63;3.20;;;31.60;57.70;;;;;;5053670;28;20478;-67
2023/09/15 09:42:45;;;;;;;3.30;2.50;;;31.80;56.50;;;;;;5033622;28;20440;-68
2023/09/15 09:45:14;;;;;;;3.53;2.43;;;32.30;56.00;;;;;;5034122;28;20944;-67
2023/09/15 09:47:41;;;;;;;3.30;3.00;;;32.60;55.30;;;;;;5049811;28;20501;-67
2023/09/15 09:50:11;;;;;;;4.17;2.73;;;32.80;55.10;;;;;;5053628;28;20500;-68
2023/09/15 09:52:42;;;;;;;3.40;2.90;;;32.90;55.10;;;;;;5035113;28;20558;-68
2023/09/15 09:55:10;;;;;;;3.57;2.70;;;33.20;54.90;;;;;;5052583;28;20836;-68
2023/09/15 09:57:38;;;;;;;4.47;2.87;;;33.10;54.30;;;;;;5053438;28;20467;-68
2023/09/15 10:00:09;;;;;;;3.80;2.30;;;33.10;53.10;;;;;;5052168;28;20815;-67
2023/09/15 10:02:37;;;;;;;3.67;2.70;;;33.40;52.20;;;;;;5052923;28;20478;-68
2023/09/15 10:05:04;;;;;;;2.63;2.23;;;33.30;51.80;;;;;;5053449;28;20916;-68
2023/09/15 10:07:34;;;;;;;3.30;2.70;;;33.20;52.40;;;;;;5054059;28;20516;-66
2023/09/15 10:10:02;;;;;;;3.57;2.63;;;33.10;51.90;;;;;;5053600;28;20872;-67
2023/09/15 10:12:30;;;;;;;3.77;2.70;;;33.10;52.60;;;;;;5053945;28;20947;-67
2023/09/15 10:14:58;;;;;;;3.40;2.50;;;33.00;51.90;;;;;;5052217;28;20512;-68
2023/09/15 10:17:27;;;;;;;3.13;2.17;;;32.80;51.90;;;;;;5052914;28;21014;-67
2023/09/15 10:19:56;;;;;;;5.97;2.37;;;32.60;51.90;;;;;;5051969;28;20509;-66
2023/09/15 10:22:24;;;;;;;5.40;2.80;;;32.50;52.50;;;;;;5052721;28;20857;-67
2023/09/15 10:24:58;;;;;;;3.70;2.80;;;32.40;52.30;;;;;;5052398;28;20970;-67
2023/09/15 10:27:25;;;;;;;5.33;2.67;;;32.40;52.80;;;;;;5052784;28;20843;-66
2023/09/15 10:29:53;;;;;;;4.70;2.63;;;32.40;52.00;;;;;;5034321;28;20451;-68
2023/09/15 10:32:21;;;;;;;2.90;2.10;;;32.10;52.50;;;;;;5052827;28;20467;-68
2023/09/15 10:34:49;;;;;;;2.30;2.10;;;32.00;53.10;;;;;;5053032;28;20497;-68
2023/09/15 10:37:16;;;;;;;2.90;2.60;;;31.90;53.40;;;;;;5051890;28;20507;-66
2023/09/15 10:39:43;;;;;;;4.07;3.17;;;31.70;53.20;;;;;;5052703;28;20439;-68
2023/09/15 10:42:14;;;;;;;3.80;3.03;;;31.40;53.30;;;;;;5052495;28;20428;-68
2023/09/15 10:44:42;;;;;;;3.17;2.67;;;31.20;53.20;;;;;;5049143;28;20489;-67
2023/09/15 10:47:16;;;;;;;5.00;3.00;;;31.00;54.80;;;;;;5032682;28;21019;-67
2023/09/15 10:49:53;;;;;;;3.60;2.53;;;30.60;54.80;;;;;;5033758;28;20507;-67
2023/09/15 10:52:33;;;;;;;4.00;3.17;;;30.20;54.80;;;;;;5050258;28;20566;-67
2023/09/15 10:55:00;;;;;;;3.80;2.93;;;29.90;55.90;;;;;;5052902;28;20558;-68
2023/09/15 10:57:29;;;;;;;5.23;3.00;;;29.60;57.10;;;;;;5035983;28;20476;-68
2023/09/15 10:59:57;;;;;;;2.73;2.50;;;29.30;58.60;;;;;;5034165;28;20463;-68
2023/09/15 11:02:26;;;;;;;6.20;2.63;;;29.20;57.00;;;;;;5047367;28;20455;-67
2023/09/15 11:04:54;;;;;;;3.37;2.70;;;28.80;57.90;;;;;;5052589;28;20494;-67
2023/09/15 11:07:22;;;;;;;3.60;2.93;;;28.50;59.20;;;;;;5043196;28;20472;-66
2023/09/15 11:09:49;;;;;;;5.07;2.80;;;28.20;60.70;;;;;;5032320;28;20425;-67
2023/09/15 11:12:16;;;;;;;3.93;2.83;;;27.70;60.50;;;;;;5040663;28;20506;-68
2023/09/15 11:14:45;;;;;;;3.93;2.77;;;27.40;61.50;;;;;;5053090;28;20793;-67
2023/09/15 11:17:12;;;;;;;6.53;2.90;;;27.10;62.00;;;;;;5051936;28;20475;-67
2023/09/15 11:19:40;;;;;;;3.97;2.97;;;26.70;62.30;;;;;;5050123;28;20460;-68
2023/09/15 11:22:07;;;;;;;2.70;2.47;;;26.50;64.20;;;;;;5055327;28;20893;-67
2023/09/15 11:24:34;;;;;;;3.50;3.07;;;26.40;64.30;;;;;;5054549;28;20874;-68
2023/09/15 11:27:02;;;;;;;4.13;3.20;;;26.20;64.70;;;;;;5050095;28;20517;-67
2023/09/15 11:29:31;;;;;;;5.80;2.70;;;26.20;65.60;;;;;;5050767;28;20486;-68
2023/09/15 11:32:01;;;;;;;3.17;2.87;;;26.10;66.70;;;;;;5048877;28;20532;-67
2023/09/15 11:34:29;;;;;;;3.87;2.80;;;26.00;67.40;;;;;;5049152;28;20458;-67
2023/09/15 11:36:59;;;;;;;3.67;3.10;;;25.90;68.50;;;;;;5047974;28;20467;-68
2023/09/15 11:39:29;;;;;;;6.90;5.20;;;25.70;67.70;;;;;;5050040;28;20438;-65
2023/09/15 11:41:56;;;;;;;3.73;2.90;;;25.70;68.20;;;;;;5050254;28;20796;-66
2023/09/15 11:44:25;;;;;;;4.27;2.90;;;25.60;69.00;;;;;;5049382;28;20546;-68
2023/09/15 11:46:53;;;;;;;6.03;3.17;;;25.60;71.80;;;;;;5051667;28;20979;-67
2023/09/15 11:49:22;;;;;;;4.13;2.73;;;25.60;71.30;;;;;;5051434;28;20435;-65
2023/09/15 11:51:50;;;;;;;3.60;3.30;;;25.50;67.80;;;;;;5031810;28;20810;-67
2023/09/15 11:54:19;;;;;;;3.70;3.00;;;25.40;67.50;;;;;;5033024;28;20522;-66
2023/09/15 11:56:47;;;;;;;3.17;2.83;;;25.10;68.70;;;;;;5032828;28;20645;-68
2023/09/15 11:59:15;;;;;;;3.33;3.00;;;24.90;69.10;;;;;;5032449;28;20443;-66
2023/09/15 12:01:45;;;;;;;4.60;2.70;;;24.90;69.30;;;;;;5032015;28;20975;-67
2023/09/15 12:04:13;;;;;;;3.90;3.30;;;24.80;69.30;;;;;;5031913;28;21031;-66
2023/09/15 12:06:42;;;;;;;3.57;2.90;;;24.70;70.20;;;;;;5048163;28;21003;-67
2023/09/15 12:09:12;;;;;;;4.50;3.10;;;24.80;70.90;;;;;;5055719;28;20920;-67
2023/09/15 12:11:41;;;;;;;3.30;2.47;;;24.60;70.30;;;;;;5054446;28;20428;-67
2023/09/15 12:14:09;;;;;;;3.60;2.97;;;24.50;70.60;;;;;;5054842;28;20936;-68
2023/09/15 12:16:37;;;;;;;6.60;4.83;;;24.60;71.40;;;;;;5054959;28;20471;-67
2023/09/15 12:19:07;;;;;;;3.50;3.00;;;24.70;72.50;;;;;;5034291;28;20456;-68
2023/09/15 12:21:34;;;;;;;3.77;2.70;;;24.70;71.60;;;;;;5034955;28;20496;-67
2023/09/15 12:24:11;;;;;;;4.67;2.60;;;24.80;71.80;;;;;;5038219;28;20458;-67
2023/09/15 12:26:41;;;;;;;5.13;2.70;;;24.80;72.00;;;;;;5055886;28;20463;-67
2023/09/15 12:29:08;;;;;;;3.90;3.20;;;24.90;74.00;;;;;;5054620;28;20439;-67
2023/09/15 12:31:45;;;;;;;6.13;2.63;;;25.00;72.40;;;;;;5054820;28;20431;-67
2023/09/15 12:34:20;;;;;;;5.63;2.77;;;24.90;72.60;;;;;;5054913;28;20486;-67
2023/09/15 12:36:51;;;;;;;3.23;2.40;;;25.00;73.20;;;;;;5054616;28;20466;-66
2023/09/15 12:39:20;;;;;;;6.23;2.80;;;25.10;72.70;;;;;;5054567;28;20428;-67
2023/09/15 12:41:47;;;;;;;2.90;2.37;;;25.30;73.30;;;;;;5055098;28;20466;-67
2023/09/15 12:44:17;;;;;;;5.47;2.70;;;25.40;71.60;;;;;;5054822;28;20435;-68
2023/09/15 12:46:44;;;;;;;4.17;2.73;;;25.50;72.10;;;;;;5055135;28;20486;-67
2023/09/15 12:49:11;;;;;;;2.53;2.20;;;25.70;71.80;;;;;;5055214;28;20434;-67
2023/09/15 12:51:38;;;;;;;2.97;2.67;;;25.70;71.00;;;;;;5054117;28;20454;-67
2023/09/15 12:54:07;;;;;;;4.70;2.70;;;25.60;70.50;;;;;;5055183;28;20466;-67
2023/09/15 12:56:36;;;;;;;3.40;3.10;;;25.40;71.60;;;;;;5054782;28;20471;-67
2023/09/15 12:59:04;;;;;;;4.60;2.90;;;25.20;72.10;;;;;;5054788;28;20451;-67
2023/09/15 13:01:34;;;;;;;4.30;3.90;;;24.90;72.90;;;;;;5035800;28;20812;-67
2023/09/15 13:04:02;;;;;;;3.27;2.60;;;24.90;73.70;;;;;;5054419;28;20431;-67
2023/09/15 13:06:31;;;;;;;3.77;3.10;;;24.80;73.40;;;;;;5053520;28;20463;-67
2023/09/15 13:08:58;;;;;;;3.73;2.80;;;24.70;73.50;;;;;;5052831;28;20818;-67